createdAt,value
2022-08-28T00:00:19.341Z,16.50
2022-08-28T00:02:46.852Z,16.40
2022-08-28T00:05:14.362Z,16.40
2022-08-28T00:07:44.365Z,16.40
2022-08-28T00:10:16.947Z,16.40
2022-08-28T00:12:44.443Z,16.40
2022-08-28T00:15:13.874Z,16.30
2022-08-28T00:17:40.921Z,16.30
2022-08-28T00:20:09.515Z,16.20
2022-08-28T00:22:38.458Z,16.20
2022-08-28T00:25:10.112Z,16.20
2022-08-28T00:27:52.524Z,16.20
2022-08-28T00:30:20.516Z,16.20
2022-08-28T00:32:47.838Z,16.10
2022-08-28T00:35:17.670Z,16.00
2022-08-28T00:37:46.205Z,15.90
2022-08-28T00:40:15.950Z,15.90
2022-08-28T00:42:43.321Z,15.90
2022-08-28T00:45:10.416Z,15.90
2022-08-28T00:47:39.191Z,15.80
2022-08-28T00:50:07.199Z,15.80
2022-08-28T00:52:34.150Z,15.80
2022-08-28T00:55:03.976Z,15.80
2022-08-28T00:57:36.303Z,15.80
2022-08-28T01:00:05.470Z,15.80
2022-08-28T01:02:32.471Z,15.80
2022-08-28T01:04:59.433Z,15.80
2022-08-28T01:07:26.431Z,15.90
2022-08-28T01:09:54.113Z,15.80
2022-08-28T01:12:23.197Z,15.80
2022-08-28T01:14:50.869Z,15.80
2022-08-28T01:17:18.151Z,15.80
2022-08-28T01:19:48.332Z,15.80
2022-08-28T01:22:20.525Z,15.70
2022-08-28T01:24:47.693Z,15.70
2022-08-28T01:27:14.799Z,15.60
2022-08-28T01:29:41.758Z,15.60
2022-08-28T01:32:12.408Z,15.60
2022-08-28T01:34:39.526Z,15.50
2022-08-28T01:37:06.387Z,15.50
2022-08-28T01:39:35.771Z,15.50
2022-08-28T01:42:04.895Z,15.50
2022-08-28T01:44:31.803Z,15.40
2022-08-28T01:46:59.004Z,15.40
2022-08-28T01:49:29.197Z,15.40
2022-08-28T01:51:56.862Z,15.40
2022-08-28T01:54:25.324Z,15.40
2022-08-28T01:56:52.422Z,15.30
2022-08-28T01:59:19.385Z,15.30
2022-08-28T02:01:46.431Z,15.20
2022-08-28T02:04:13.441Z,15.10
2022-08-28T02:06:41.260Z,15.10
2022-08-28T02:09:13.524Z,15.10
2022-08-28T02:11:44.394Z,15.10
2022-08-28T02:14:13.919Z,15.20
2022-08-28T02:16:40.869Z,15.10
2022-08-28T02:19:07.751Z,15.10
2022-08-28T02:21:35.528Z,15.00
2022-08-28T02:24:02.491Z,15.00
2022-08-28T02:26:30.379Z,15.00
2022-08-28T02:28:58.649Z,15.10
2022-08-28T02:31:26.591Z,15.10
2022-08-28T02:33:53.637Z,15.00
2022-08-28T02:36:22.589Z,15.00
2022-08-28T02:38:55.333Z,15.00
2022-08-28T02:41:24.518Z,14.90
2022-08-28T02:43:51.389Z,14.90
2022-08-28T02:46:18.379Z,15.00
2022-08-28T02:48:45.629Z,14.90
2022-08-28T02:51:13.406Z,14.90
2022-08-28T02:53:40.893Z,14.90
2022-08-28T02:56:08.106Z,14.90
2022-08-28T02:58:35.369Z,14.80
2022-08-28T03:01:04.190Z,14.80
2022-08-28T03:03:31.284Z,14.70
2022-08-28T03:06:01.322Z,14.70
2022-08-28T03:08:28.327Z,14.70
2022-08-28T03:10:55.351Z,14.70
2022-08-28T03:13:26.641Z,14.70
2022-08-28T03:15:55.986Z,14.70
2022-08-28T03:18:24.440Z,14.70
2022-08-28T03:20:52.625Z,14.70
2022-08-28T03:23:28.321Z,14.60
2022-08-28T03:26:00.325Z,14.60
2022-08-28T03:28:30.055Z,14.60
2022-08-28T03:30:57.860Z,14.60
2022-08-28T03:33:25.171Z,14.60
2022-08-28T03:35:52.393Z,14.50
2022-08-28T03:38:19.401Z,14.50
2022-08-28T03:40:47.201Z,14.50
2022-08-28T03:43:18.989Z,14.40
2022-08-28T03:45:58.134Z,14.40
2022-08-28T03:48:26.715Z,14.50
2022-08-28T03:50:53.742Z,14.50
2022-08-28T03:53:23.270Z,14.50
2022-08-28T03:55:50.243Z,14.50
2022-08-28T03:58:18.985Z,14.60
2022-08-28T04:00:46.480Z,14.60
2022-08-28T04:03:13.764Z,14.70
2022-08-28T04:05:44.442Z,14.70
2022-08-28T04:08:16.560Z,14.70
2022-08-28T04:10:44.611Z,14.70
2022-08-28T04:13:11.769Z,14.70
2022-08-28T04:15:38.738Z,14.80
2022-08-28T04:18:05.840Z,14.80
2022-08-28T04:20:33.171Z,14.90
2022-08-28T04:23:01.268Z,14.90
2022-08-28T04:25:28.200Z,15.00
2022-08-28T04:27:55.067Z,15.00
2022-08-28T04:30:22.021Z,15.00
2022-08-28T04:32:48.962Z,15.10
2022-08-28T04:35:16.181Z,15.10
2022-08-28T04:37:46.257Z,15.10
2022-08-28T04:40:15.954Z,15.10
2022-08-28T04:42:44.985Z,15.10
2022-08-28T04:45:12.014Z,15.10
2022-08-28T04:47:38.970Z,15.10
2022-08-28T04:50:07.030Z,15.10
2022-08-28T04:52:33.990Z,15.10
2022-08-28T04:55:01.627Z,15.10
2022-08-28T04:57:29.771Z,15.10
2022-08-28T04:59:58.787Z,15.10
2022-08-28T05:02:28.649Z,15.10
2022-08-28T05:04:57.920Z,15.10
2022-08-28T05:07:24.794Z,15.10
2022-08-28T05:09:54.734Z,15.00
2022-08-28T05:12:22.247Z,15.00
2022-08-28T05:14:49.502Z,15.00
2022-08-28T05:17:16.438Z,14.90
2022-08-28T05:19:43.824Z,14.90
2022-08-28T05:22:10.841Z,14.80
2022-08-28T05:24:38.088Z,14.80
2022-08-28T05:27:05.358Z,14.80
2022-08-28T05:29:32.237Z,14.80
2022-08-28T05:31:59.196Z,14.80
2022-08-28T05:34:28.817Z,14.80
2022-08-28T05:36:55.852Z,14.70
2022-08-28T05:39:22.766Z,14.70
2022-08-28T05:41:49.885Z,14.70
2022-08-28T05:44:17.332Z,14.80
2022-08-28T05:46:47.571Z,14.80
2022-08-28T05:49:15.028Z,14.90
2022-08-28T05:51:45.599Z,14.80
2022-08-28T05:54:12.639Z,14.90
2022-08-28T05:56:40.605Z,14.90
2022-08-28T05:59:07.845Z,14.90
2022-08-28T06:01:37.206Z,14.90
2022-08-28T06:04:15.777Z,15.00
2022-08-28T06:06:42.871Z,15.00
2022-08-28T06:09:13.971Z,15.00
2022-08-28T06:11:44.844Z,15.10
2022-08-28T06:14:13.775Z,15.10
2022-08-28T06:16:43.707Z,15.10
2022-08-28T06:19:11.220Z,15.20
2022-08-28T06:21:38.527Z,15.20
2022-08-28T06:24:05.665Z,15.30
2022-08-28T06:26:32.596Z,15.30
2022-08-28T06:29:01.042Z,15.30
2022-08-28T06:31:33.003Z,15.40
2022-08-28T06:34:01.408Z,15.40
2022-08-28T06:36:30.437Z,15.50
2022-08-28T06:39:00.803Z,15.50
2022-08-28T06:41:28.752Z,15.50
2022-08-28T06:43:57.251Z,15.50
2022-08-28T06:46:25.126Z,15.60
2022-08-28T06:48:52.770Z,15.70
2022-08-28T06:51:19.856Z,15.70
2022-08-28T06:53:50.201Z,15.70
2022-08-28T06:56:25.994Z,15.80
2022-08-28T06:58:55.092Z,15.80
2022-08-28T07:01:23.938Z,15.90
2022-08-28T07:03:52.737Z,15.90
2022-08-28T07:06:20.088Z,16.00
2022-08-28T07:08:47.079Z,16.20
2022-08-28T07:11:17.456Z,16.20
2022-08-28T07:13:44.941Z,16.20
2022-08-28T07:16:16.223Z,16.30
2022-08-28T07:18:43.977Z,16.30
2022-08-28T07:21:12.584Z,16.30
2022-08-28T07:23:40.169Z,16.30
2022-08-28T07:26:09.045Z,16.30
2022-08-28T07:28:36.303Z,16.40
2022-08-28T07:31:05.689Z,16.40
2022-08-28T07:33:32.974Z,16.40
2022-08-28T07:36:00.242Z,16.50
2022-08-28T07:38:27.647Z,16.60
2022-08-28T07:40:54.968Z,16.60
2022-08-28T07:43:40.743Z,16.70
2022-08-28T07:46:08.516Z,16.70
2022-08-28T07:48:36.352Z,16.70
2022-08-28T07:51:04.039Z,16.80
2022-08-28T07:53:35.801Z,16.80
2022-08-28T07:56:04.058Z,16.80
2022-08-28T07:58:31.346Z,16.90
2022-08-28T08:00:58.425Z,17.00
2022-08-28T08:03:25.748Z,17.10
2022-08-28T08:05:54.321Z,17.10
2022-08-28T08:08:22.374Z,17.00
2022-08-28T08:11:11.286Z,17.10
2022-08-28T08:13:44.071Z,17.20
2022-08-28T08:16:20.244Z,17.20
2022-08-28T08:18:49.790Z,17.30
2022-08-28T08:21:18.537Z,17.40
2022-08-28T08:23:45.846Z,17.50
2022-08-28T08:26:14.634Z,17.60
2022-08-28T08:28:42.437Z,17.60
2022-08-28T08:31:14.347Z,17.70
2022-08-28T08:33:43.071Z,17.70
2022-08-28T08:36:10.978Z,17.90
2022-08-28T08:38:38.108Z,17.90
2022-08-28T08:41:13.935Z,18.00
2022-08-28T08:44:05.426Z,18.10
2022-08-28T08:46:34.633Z,18.20
2022-08-28T08:49:03.116Z,18.30
2022-08-28T08:51:56.218Z,18.30
2022-08-28T08:54:23.342Z,18.40
2022-08-28T08:56:50.444Z,18.40
2022-08-28T08:59:19.578Z,18.50
2022-08-28T09:02:05.130Z,18.50
2022-08-28T09:04:41.881Z,18.60
2022-08-28T09:07:30.284Z,18.70
2022-08-28T09:09:57.564Z,18.70
2022-08-28T09:12:29.386Z,18.70
2022-08-28T09:15:17.630Z,18.90
2022-08-28T09:17:47.928Z,18.90
2022-08-28T09:20:17.851Z,18.90
2022-08-28T09:22:48.778Z,19.00
2022-08-28T09:25:52.903Z,19.10
2022-08-28T09:28:26.216Z,19.20
2022-08-28T09:31:00.528Z,19.20
2022-08-28T09:33:31.462Z,19.10
2022-08-28T09:35:58.505Z,19.10
2022-08-28T09:38:35.385Z,19.10
2022-08-28T09:41:26.978Z,19.10
2022-08-28T09:43:54.251Z,19.10
2022-08-28T09:46:24.104Z,19.20
2022-08-28T09:48:52.385Z,19.20
2022-08-28T09:51:28.846Z,19.30
2022-08-28T09:54:05.512Z,19.40
2022-08-28T09:56:33.573Z,19.40
2022-08-28T09:59:14.534Z,19.50
2022-08-28T10:01:44.757Z,19.50
2022-08-28T10:04:33.822Z,19.60
2022-08-28T10:07:35.091Z,19.70
2022-08-28T10:10:06.679Z,19.70
2022-08-28T10:12:53.174Z,19.70
2022-08-28T10:15:27.011Z,19.80
2022-08-28T10:18:19.665Z,19.80
2022-08-28T10:21:10.481Z,20.00
2022-08-28T10:24:01.515Z,20.00
2022-08-28T10:26:43.980Z,20.00
2022-08-28T10:29:35.288Z,20.00
2022-08-28T10:32:37.227Z,20.00
2022-08-28T10:35:25.299Z,20.00
2022-08-28T10:38:04.311Z,20.10
2022-08-28T10:40:34.746Z,20.20
2022-08-28T10:43:30.707Z,20.30
2022-08-28T10:46:01.283Z,20.50
2022-08-28T10:48:50.271Z,20.50
2022-08-28T10:51:34.973Z,20.60
2022-08-28T10:54:16.405Z,20.70
2022-08-28T10:57:08.872Z,20.80
2022-08-28T10:59:41.879Z,20.90
2022-08-28T11:02:09.442Z,20.90
2022-08-28T11:04:36.449Z,20.90
2022-08-28T11:07:06.667Z,21.00
2022-08-28T11:09:51.710Z,21.10
2022-08-28T11:12:19.801Z,21.10
2022-08-28T11:14:48.887Z,21.10
2022-08-28T11:17:21.935Z,21.10
2022-08-28T11:20:01.221Z,21.20
2022-08-28T11:22:35.431Z,21.30
2022-08-28T11:25:15.525Z,21.40
2022-08-28T11:28:11.493Z,21.50
2022-08-28T11:30:38.689Z,21.50
2022-08-28T11:33:26.716Z,21.60
2022-08-28T11:35:53.842Z,21.50
2022-08-28T11:38:42.649Z,21.40
2022-08-28T11:41:17.666Z,21.40
2022-08-28T11:43:45.693Z,21.40
2022-08-28T11:46:31.287Z,21.60
2022-08-28T11:49:02.726Z,21.70
2022-08-28T11:51:52.962Z,21.70
2022-08-28T11:54:58.603Z,21.70
2022-08-28T11:57:40.476Z,21.60
2022-08-28T12:00:10.495Z,21.60
2022-08-28T12:02:40.483Z,21.70
2022-08-28T12:05:16.505Z,21.70
2022-08-28T12:07:46.737Z,21.70
2022-08-28T12:10:22.604Z,21.80
2022-08-28T12:13:03.866Z,22.10
2022-08-28T12:15:31.201Z,22.20
2022-08-28T12:18:05.383Z,22.30
2022-08-28T12:20:50.963Z,22.30
2022-08-28T12:23:24.133Z,22.30
2022-08-28T12:25:58.406Z,22.30
2022-08-28T12:28:32.576Z,22.20
2022-08-28T12:31:05.580Z,22.10
2022-08-28T12:33:38.049Z,22.10
2022-08-28T12:36:06.007Z,22.10
2022-08-28T12:38:33.522Z,22.10
2022-08-28T12:41:00.541Z,22.20
2022-08-28T12:43:43.275Z,22.20
2022-08-28T12:46:31.325Z,22.30
2022-08-28T12:49:02.812Z,22.30
2022-08-28T12:51:34.893Z,22.20
2022-08-28T12:54:05.527Z,22.20
2022-08-28T12:56:34.104Z,22.20
2022-08-28T12:59:32.699Z,22.10
2022-08-28T13:02:04.567Z,22.20
2022-08-28T13:04:37.048Z,22.30
2022-08-28T13:07:07.570Z,22.40
2022-08-28T13:09:34.572Z,22.50
2022-08-28T13:12:01.611Z,22.50
2022-08-28T13:14:43.166Z,22.60
2022-08-28T13:17:10.846Z,22.70
2022-08-28T13:19:38.216Z,22.70
2022-08-28T13:22:29.185Z,22.70
2022-08-28T13:24:59.925Z,22.80
2022-08-28T13:27:27.056Z,22.80
2022-08-28T13:29:57.474Z,22.90
2022-08-28T13:32:28.254Z,22.90
2022-08-28T13:35:17.865Z,23.00
2022-08-28T13:37:53.186Z,23.10
2022-08-28T13:40:55.851Z,23.10
2022-08-28T13:43:12.892Z,23.10
2022-08-28T13:45:43.168Z,22.90
2022-08-28T13:48:18.298Z,22.80
2022-08-28T13:50:47.581Z,22.80
2022-08-28T13:53:16.869Z,22.90
2022-08-28T13:55:44.202Z,22.90
2022-08-28T13:58:14.026Z,22.80
2022-08-28T14:00:43.746Z,22.80
2022-08-28T14:03:29.670Z,22.80
2022-08-28T14:05:56.589Z,22.70
2022-08-28T14:08:24.079Z,22.70
2022-08-28T14:10:51.108Z,22.70
2022-08-28T14:13:19.874Z,22.80
2022-08-28T14:15:47.524Z,22.90
2022-08-28T14:18:14.468Z,22.90
2022-08-28T14:20:41.351Z,22.90
2022-08-28T14:23:09.709Z,23.00
2022-08-28T14:25:45.273Z,23.10
2022-08-28T14:28:12.738Z,23.20
2022-08-28T14:30:47.598Z,23.10
2022-08-28T14:33:16.937Z,23.00
2022-08-28T14:35:44.014Z,23.00
2022-08-28T14:38:11.330Z,23.00
2022-08-28T14:40:39.237Z,23.00
2022-08-28T14:43:07.282Z,23.00
2022-08-28T14:45:34.385Z,22.80
2022-08-28T14:48:01.439Z,22.70
2022-08-28T14:50:28.474Z,22.60
2022-08-28T14:52:55.395Z,22.40
2022-08-28T14:55:22.472Z,22.30
2022-08-28T14:57:52.813Z,22.50
2022-08-28T15:00:19.943Z,22.60
2022-08-28T15:02:47.267Z,22.70
2022-08-28T15:05:15.535Z,22.60
2022-08-28T15:07:42.485Z,22.70
2022-08-28T15:10:13.377Z,22.70
2022-08-28T15:12:40.882Z,22.60
2022-08-28T15:15:13.418Z,22.50
2022-08-28T15:17:40.417Z,22.50
2022-08-28T15:20:07.838Z,22.50
2022-08-28T15:22:34.733Z,22.30
2022-08-28T15:25:09.213Z,22.30
2022-08-28T15:27:36.615Z,22.30
2022-08-28T15:30:04.764Z,22.20
2022-08-28T15:32:32.309Z,22.20
2022-08-28T15:34:59.260Z,22.20
2022-08-28T15:37:31.604Z,22.40
2022-08-28T15:40:20.493Z,22.40
2022-08-28T15:42:47.560Z,22.60
2022-08-28T15:45:16.863Z,22.60
2022-08-28T15:47:44.030Z,22.60
2022-08-28T15:50:11.474Z,22.60
2022-08-28T15:52:38.952Z,22.50
2022-08-28T15:55:06.494Z,22.40
2022-08-28T15:57:40.993Z,22.30
2022-08-28T16:00:10.470Z,22.30
2022-08-28T16:02:38.334Z,22.30
2022-08-28T16:05:06.622Z,22.30
2022-08-28T16:07:33.899Z,22.40
2022-08-28T16:10:01.890Z,22.50
2022-08-28T16:12:29.146Z,22.40
2022-08-28T16:14:56.308Z,22.20
2022-08-28T16:17:23.228Z,22.20
2022-08-28T16:19:50.181Z,22.10
2022-08-28T16:22:17.224Z,22.20
2022-08-28T16:24:44.714Z,22.20
2022-08-28T16:27:15.382Z,22.20
2022-08-28T16:29:43.804Z,22.00
2022-08-28T16:32:13.480Z,21.90
2022-08-28T16:34:40.962Z,21.90
2022-08-28T16:37:12.179Z,22.00
2022-08-28T16:39:39.543Z,22.00
2022-08-28T16:42:07.018Z,22.00
2022-08-28T16:44:35.388Z,22.00
2022-08-28T16:47:03.074Z,22.10
2022-08-28T16:49:30.347Z,22.10
2022-08-28T16:51:57.333Z,22.10
2022-08-28T16:54:24.302Z,22.10
2022-08-28T16:56:51.259Z,22.10
2022-08-28T16:59:23.249Z,22.10
2022-08-28T17:01:53.128Z,22.00
2022-08-28T17:04:21.587Z,21.80
2022-08-28T17:06:48.613Z,21.80
2022-08-28T17:09:15.577Z,21.90
2022-08-28T17:11:42.550Z,21.90
2022-08-28T17:14:11.917Z,21.90
2022-08-28T17:16:39.198Z,21.80
2022-08-28T17:19:06.481Z,21.80
2022-08-28T17:21:51.876Z,21.70
2022-08-28T17:24:18.923Z,21.70
2022-08-28T17:26:45.782Z,21.60
2022-08-28T17:29:12.713Z,21.60
2022-08-28T17:31:39.765Z,21.50
2022-08-28T17:34:07.667Z,21.50
2022-08-28T17:36:35.510Z,21.40
2022-08-28T17:39:03.592Z,21.40
2022-08-28T17:41:30.713Z,21.40
2022-08-28T17:43:57.631Z,21.20
2022-08-28T17:46:25.757Z,21.20
2022-08-28T17:48:55.669Z,21.20
2022-08-28T17:51:42.091Z,21.20
2022-08-28T17:54:13.876Z,21.10
2022-08-28T17:56:41.121Z,21.10
2022-08-28T17:59:08.140Z,21.00
2022-08-28T18:01:38.542Z,21.00
2022-08-28T18:04:05.744Z,21.00
2022-08-28T18:06:32.714Z,21.10
2022-08-28T18:09:00.461Z,21.10
2022-08-28T18:11:27.800Z,21.10
2022-08-28T18:13:54.768Z,20.90
2022-08-28T18:16:21.687Z,20.90
2022-08-28T18:18:48.771Z,21.00
2022-08-28T18:21:15.728Z,21.00
2022-08-28T18:23:42.666Z,20.90
2022-08-28T18:26:09.799Z,20.90
2022-08-28T18:28:36.883Z,20.80
2022-08-28T18:31:05.747Z,20.80
2022-08-28T18:33:37.160Z,20.70
2022-08-28T18:36:07.470Z,20.70
2022-08-28T18:38:35.532Z,20.60
2022-08-28T18:41:03.100Z,20.60
2022-08-28T18:43:30.285Z,20.60
2022-08-28T18:45:57.467Z,20.50
2022-08-28T18:48:24.462Z,20.40
2022-08-28T18:50:51.406Z,20.40
2022-08-28T18:53:19.687Z,20.20
2022-08-28T18:55:46.654Z,20.10
2022-08-28T18:58:17.525Z,20.10
2022-08-28T19:00:44.848Z,20.00
2022-08-28T19:03:11.846Z,20.00
2022-08-28T19:05:38.978Z,20.00
2022-08-28T19:08:06.138Z,19.80
2022-08-28T19:10:34.920Z,19.80
2022-08-28T19:13:02.731Z,19.80
2022-08-28T19:15:31.294Z,19.80
2022-08-28T19:18:00.269Z,19.70
2022-08-28T19:20:29.318Z,19.60
2022-08-28T19:22:56.865Z,19.60
2022-08-28T19:25:28.584Z,19.60
2022-08-28T19:27:59.467Z,19.60
2022-08-28T19:30:27.445Z,19.50
2022-08-28T19:32:54.552Z,19.40
2022-08-28T19:35:24.268Z,19.30
2022-08-28T19:37:52.776Z,19.30
2022-08-28T19:40:20.596Z,19.30
2022-08-28T19:42:49.812Z,19.30
2022-08-28T19:45:17.019Z,19.30
2022-08-28T19:47:44.212Z,19.30
2022-08-28T19:50:11.634Z,19.30
2022-08-28T19:52:38.770Z,19.40
2022-08-28T19:55:06.670Z,19.40
2022-08-28T19:57:34.347Z,19.30
2022-08-28T20:00:02.019Z,19.30
2022-08-28T20:02:31.213Z,19.20
2022-08-28T20:04:58.892Z,19.20
2022-08-28T20:07:25.821Z,19.10
2022-08-28T20:09:52.812Z,19.10
2022-08-28T20:12:19.835Z,19.10
2022-08-28T20:14:47.343Z,19.10
2022-08-28T20:17:14.253Z,19.00
2022-08-28T20:19:41.936Z,19.00
2022-08-28T20:22:08.872Z,19.00
2022-08-28T20:24:35.783Z,19.00
2022-08-28T20:27:02.687Z,19.00
2022-08-28T20:29:30.029Z,19.00
2022-08-28T20:31:57.055Z,19.00
2022-08-28T20:34:23.934Z,19.00
2022-08-28T20:36:51.012Z,18.90
2022-08-28T20:39:18.273Z,18.90
2022-08-28T20:41:45.944Z,18.80
2022-08-28T20:44:15.447Z,18.80
2022-08-28T20:46:42.651Z,18.70
2022-08-28T20:49:13.860Z,18.70
2022-08-28T20:51:53.692Z,18.70
2022-08-28T20:54:25.760Z,18.80
2022-08-28T20:56:52.826Z,18.70
2022-08-28T20:59:20.139Z,18.70
2022-08-28T21:01:48.911Z,18.70
2022-08-28T21:04:16.172Z,18.60
2022-08-28T21:06:46.558Z,18.70
2022-08-28T21:09:17.039Z,18.60
2022-08-28T21:11:44.226Z,18.70
2022-08-28T21:14:11.221Z,18.60
2022-08-28T21:16:38.700Z,18.60
2022-08-28T21:19:15.653Z,18.60
2022-08-28T21:21:44.048Z,18.60
2022-08-28T21:24:12.034Z,18.50
2022-08-28T21:26:47.017Z,18.50
2022-08-28T21:29:14.627Z,18.50
2022-08-28T21:31:42.423Z,18.50
2022-08-28T21:34:09.769Z,18.50
2022-08-28T21:36:38.064Z,18.50
2022-08-28T21:39:05.399Z,18.60
2022-08-28T21:41:32.422Z,18.50
2022-08-28T21:43:59.273Z,18.50
2022-08-28T21:46:27.567Z,18.50
2022-08-28T21:48:56.270Z,18.50
2022-08-28T21:51:23.999Z,18.50
2022-08-28T21:53:51.835Z,18.50
2022-08-28T21:56:26.930Z,18.50
2022-08-28T21:58:54.332Z,18.50
2022-08-28T22:01:21.982Z,18.40
2022-08-28T22:03:49.428Z,18.40
2022-08-28T22:06:18.436Z,18.40
2022-08-28T22:08:46.135Z,18.30
2022-08-28T22:11:14.291Z,18.20
2022-08-28T22:13:42.676Z,18.20
2022-08-28T22:16:10.276Z,18.20
2022-08-28T22:18:37.391Z,18.20
2022-08-28T22:21:23.150Z,18.10
2022-08-28T22:23:50.122Z,18.10
2022-08-28T22:26:19.597Z,18.20
2022-08-28T22:28:46.681Z,18.10
2022-08-28T22:31:13.876Z,18.20
2022-08-28T22:33:42.974Z,18.10
2022-08-28T22:36:10.930Z,18.10
2022-08-28T22:38:39.054Z,18.00
2022-08-28T22:41:06.514Z,18.00
2022-08-28T22:43:34.052Z,17.90
2022-08-28T22:46:01.131Z,17.90
2022-08-28T22:48:28.163Z,17.90
2022-08-28T22:51:03.077Z,17.90
2022-08-28T22:53:31.079Z,17.90
2022-08-28T22:55:59.009Z,17.90
2022-08-28T22:58:26.407Z,17.90
2022-08-28T23:00:53.566Z,17.90
2022-08-28T23:03:23.329Z,17.80
2022-08-28T23:05:50.727Z,17.80
2022-08-28T23:08:17.760Z,17.80
2022-08-28T23:10:58.496Z,17.80
2022-08-28T23:13:26.097Z,17.80
2022-08-28T23:15:53.069Z,17.80
2022-08-28T23:18:21.102Z,17.80
2022-08-28T23:20:50.441Z,17.80
2022-08-28T23:23:19.085Z,17.80
2022-08-28T23:25:46.063Z,17.70
2022-08-28T23:28:13.150Z,17.70
2022-08-28T23:30:44.079Z,17.70
2022-08-28T23:33:23.138Z,17.60
2022-08-28T23:35:52.017Z,17.70
2022-08-28T23:38:19.252Z,17.70
2022-08-28T23:40:48.033Z,17.70
2022-08-28T23:43:15.165Z,17.70
2022-08-28T23:45:43.434Z,17.60
2022-08-28T23:48:10.671Z,17.60
2022-08-28T23:50:39.626Z,17.60
2022-08-28T23:53:08.511Z,17.50
2022-08-28T23:55:36.509Z,17.50
2022-08-28T23:58:04.139Z,17.40
